Thurso, Canada
Current Conditions -  °F | °C
As of 3:00 PM on Sunday 21 Dec 2014 (Local Time) from CYND Reporting Station
Overcast Overcast  
Wind Chill: 13°   Ceiling: 1000
Heat Index: 19°   Visibility: 8mi
Dew Point: 16°   Wind: 5mph
Humidity: 86%   Direction: 80°E
Pressure: 30.35"   Gusts: NA
Location:  45.58°N, 75.23°W
Report Text: CYND 212000Z 08004KT 8SM OVC010 M07/M09 A3035 RMK SF8 SLP284
Loading
Personal Weather Stations






























Interactive Weather Map New forecast layout! Learn more

10-Day Weather Forecast

Advertisements
Track Severe Weather on mobile